Arraial do Cabo, Brazil
Current Conditions -  °F | °C
As of 6:00 PM on Sunday 21 Dec 2014 (Local Time) from SBCB Reporting Station
Scattered Clouds Scattered Clouds  
Wind Chill: 84°   Ceiling: Unl
Heat Index: 101°   Visibility: 6mi
Dew Point: 82°   Wind: 12mph
Humidity: 94%   Direction: 100°E
Pressure: 29.74"   Gusts: NA
Location:  22.97°S, 42.03°W
Report Text: SBCB 212000Z 10010KT 9999 SCT040 29/28 Q1007
Loading
Personal Weather Stations






























Interactive Weather Map New forecast layout! Learn more

10-Day Weather Forecast

Advertisements
Track Severe Weather on mobile